Terminal Aerodrome Forecast
Issued by NWS Greer, SC

Home | Current Version | Previous Version | Text Only | Print | Product List | Glossary On
Versions: 1 2 3 4 5 6 7 8 9 10 11 12
245
FTUS42 KGSP 211731
TAFGSP
TAF
KGSP 211731Z 2118/2218 VRB04KT P6SM FEW060 FEW250
     FM212000 13004KT P6SM SCT040 SCT250
     FM220200 16003KT P6SM FEW250
     FM221300 24003KT P6SM FEW250
     FM221500 23004KT P6SM FEW035=

USA.gov is the U.S. government's official web portal to all federal, state and local government web resources and services.